Time;durP1;ratioP1;P1;durP2;ratioP2;P2;SDS_P1;SDS_P2;PMS_P1;PMS_P2;Temp;Humidity;BMP_temperature;BMP_pressure;BME280_temperature;BME280_humidity;BME280_pressure;Samples;Min_cycle;Max_cycle;Signal;HPM_P1;HPM_P2
2022/07/11 00:02:13;;;;;;;0.10;0.10;;;19.80;80.90;;;;;;4928950;29;20146;-78
2022/07/11 00:04:40;;;;;;;0.10;0.10;;;19.80;81.20;;;;;;4929878;28;21079;-76
2022/07/11 00:07:07;;;;;;;0.10;0.10;;;19.70;81.30;;;;;;4931982;28;20506;-78
2022/07/11 00:09:34;;;;;;;0.20;0.15;;;19.70;81.30;;;;;;4932494;28;20506;-78
2022/07/11 00:12:01;;;;;;;0.10;0.10;;;19.70;82.30;;;;;;4932915;28;20073;-78
2022/07/11 00:14:29;;;;;;;0.15;0.13;;;19.60;82.10;;;;;;4915472;28;20160;-76
2022/07/11 00:16:55;;;;;;;0.40;0.30;;;19.60;82.70;;;;;;4917010;28;20062;-77
2022/07/11 00:19:22;;;;;;;0.63;0.22;;;19.50;82.60;;;;;;4916144;28;20086;-77
2022/07/11 00:21:52;;;;;;;0.13;0.10;;;19.40;82.80;;;;;;4931941;28;20101;-76
2022/07/11 00:24:19;;;;;;;0.45;0.30;;;19.30;83.10;;;;;;4947317;28;20051;-76
2022/07/11 00:26:47;;;;;;;0.30;0.22;;;19.30;83.40;;;;;;4948945;28;20058;-80
2022/07/11 00:29:14;;;;;;;0.75;0.40;;;19.20;83.60;;;;;;4932184;28;20136;-81
2022/07/11 00:31:41;;;;;;;0.32;0.30;;;19.20;83.70;;;;;;4918209;28;20113;-82
2022/07/11 00:34:09;;;;;;;0.30;0.20;;;19.20;83.60;;;;;;4932689;28;20054;-76
2022/07/11 00:36:36;;;;;;;0.50;0.10;;;19.20;83.90;;;;;;4932417;28;20089;-76
2022/07/11 00:39:04;;;;;;;0.03;0.03;;;19.10;84.10;;;;;;4935815;28;20062;-77
2022/07/11 00:41:31;;;;;;;0.10;0.10;;;19.10;85.00;;;;;;4936266;28;20235;-76
2022/07/11 00:43:58;;;;;;;0.10;0.10;;;19.10;84.70;;;;;;4934556;28;20166;-78
2022/07/11 00:46:26;;;;;;;0.15;0.15;;;19.10;84.50;;;;;;4936192;28;20117;-77
2022/07/11 00:48:53;;;;;;;0.20;0.20;;;19.00;84.80;;;;;;4951272;28;20062;-78
2022/07/11 00:51:23;;;;;;;0.10;0.10;;;19.00;85.20;;;;;;4937286;28;20085;-82
2022/07/11 00:53:51;;;;;;;0.05;0.05;;;18.90;85.30;;;;;;4969047;28;20055;-82
2022/07/11 00:56:23;;;;;;;0.00;0.00;;;18.90;85.60;;;;;;4968731;28;20051;-83
2022/07/11 00:58:51;;;;;;;0.10;0.10;;;18.90;85.80;;;;;;4983210;28;20149;-83
2022/07/11 01:01:18;;;;;;;0.10;0.10;;;18.80;86.00;;;;;;4952252;28;20571;-82
2022/07/11 01:03:45;;;;;;;0.30;0.20;;;18.80;86.70;;;;;;4954674;28;20108;-79
2022/07/11 01:06:12;;;;;;;0.10;0.10;;;18.70;86.20;;;;;;4936463;28;20065;-81
2022/07/11 01:08:39;;;;;;;0.13;0.10;;;18.70;86.00;;;;;;4936036;28;20134;-82
2022/07/11 01:11:12;;;;;;;0.28;0.20;;;18.80;86.10;;;;;;4937201;28;20054;-81
2022/07/11 01:13:40;;;;;;;0.15;0.15;;;18.70;86.40;;;;;;4935909;28;20275;-79
2022/07/11 01:16:12;;;;;;;0.45;0.30;;;18.70;86.80;;;;;;4937044;28;20105;-83
2022/07/11 01:18:47;;;;;;;0.13;0.13;;;18.70;87.10;;;;;;4936669;28;20050;-82
2022/07/11 01:21:30;;;;;;;0.28;0.20;;;18.70;87.30;;;;;;4938353;29;20114;-81
2022/07/11 01:23:59;;;;;;;0.20;0.20;;;18.70;87.40;;;;;;4950516;28;20047;-82
2022/07/11 01:26:26;;;;;;;0.17;0.15;;;18.60;87.50;;;;;;4917935;29;20228;-81
2022/07/11 01:28:55;;;;;;;0.10;0.10;;;18.60;88.20;;;;;;4915873;29;20814;-83
2022/07/11 01:36:51;;;;;;;0.30;0.30;;;18.60;89.20;;;;;;4936576;29;20112;-86
2022/07/11 01:39:18;;;;;;;0.13;0.13;;;18.50;90.00;;;;;;4919175;29;20090;-87
2022/07/11 01:41:45;;;;;;;0.10;0.10;;;18.50;89.80;;;;;;4921148;29;20047;-92
2022/07/11 01:44:12;;;;;;;0.13;0.10;;;18.40;90.00;;;;;;4890262;29;20070;-89
2022/07/11 01:46:40;;;;;;;0.10;0.10;;;18.40;90.10;;;;;;4889151;29;20075;-92
2022/07/11 01:49:07;;;;;;;0.15;0.15;;;18.30;90.20;;;;;;4887574;29;20115;-90
2022/07/11 01:51:34;;;;;;;0.15;0.15;;;18.30;90.30;;;;;;4888321;29;20055;-89
2022/07/11 01:54:01;;;;;;;0.20;0.20;;;18.30;90.40;;;;;;4879804;29;20123;-89
2022/07/11 01:56:29;;;;;;;0.30;0.30;;;18.30;90.50;;;;;;4886772;29;20087;-89
2022/07/11 01:58:59;;;;;;;0.10;0.10;;;18.30;90.70;;;;;;4889565;29;20071;-90
2022/07/11 02:01:26;;;;;;;0.13;0.13;;;18.20;90.80;;;;;;4889837;29;20052;-90
2022/07/11 02:03:55;;;;;;;0.10;0.10;;;18.20;91.10;;;;;;4879286;29;20056;-92
2022/07/11 02:06:22;;;;;;;0.20;0.20;;;18.10;91.20;;;;;;4900148;29;20084;-90
2022/07/11 02:08:49;;;;;;;0.30;0.20;;;18.00;91.40;;;;;;4901232;29;20052;-89
2022/07/11 02:11:16;;;;;;;0.20;0.10;;;18.00;91.60;;;;;;4900481;29;20115;-89
2022/07/11 02:13:43;;;;;;;0.30;0.30;;;18.00;91.60;;;;;;4901459;29;20060;-90
2022/07/11 02:16:11;;;;;;;0.10;0.10;;;18.00;91.80;;;;;;4900360;29;20056;-89
2022/07/11 02:18:38;;;;;;;0.45;0.20;;;18.00;91.80;;;;;;4900929;29;20417;-89
2022/07/11 02:21:05;;;;;;;0.50;0.30;;;18.00;92.00;;;;;;4912968;29;20048;-89
2022/07/11 02:23:32;;;;;;;0.20;0.20;;;17.90;92.20;;;;;;4908727;29;20432;-89
2022/07/11 02:25:59;;;;;;;0.65;0.30;;;17.90;92.30;;;;;;4885823;29;20056;-89
2022/07/11 02:28:26;;;;;;;0.13;0.13;;;17.90;92.50;;;;;;4917983;29;20249;-89
2022/07/11 02:30:53;;;;;;;0.20;0.20;;;17.80;92.80;;;;;;4916555;29;20055;-89
2022/07/11 02:33:20;;;;;;;0.30;0.10;;;17.80;92.90;;;;;;4914677;29;20059;-90
2022/07/11 02:35:47;;;;;;;0.10;0.10;;;17.70;93.20;;;;;;4900646;29;20206;-90
2022/07/11 02:38:15;;;;;;;0.15;0.15;;;17.70;93.30;;;;;;4915807;29;20131;-92
2022/07/11 02:40:44;;;;;;;0.17;0.17;;;17.60;93.60;;;;;;4916297;29;20112;-90
2022/07/11 02:43:12;;;;;;;0.10;0.10;;;17.60;93.80;;;;;;4909320;29;20055;-90
2022/07/11 02:45:39;;;;;;;0.13;0.13;;;17.60;94.00;;;;;;4914880;29;20072;-90
2022/07/11 02:48:06;;;;;;;0.20;0.20;;;17.60;94.00;;;;;;4915349;29;20056;-89
2022/07/11 02:50:33;;;;;;;0.20;0.20;;;17.50;94.20;;;;;;4914997;29;20060;-88
2022/07/11 02:53:00;;;;;;;0.20;0.20;;;17.50;94.20;;;;;;4915082;29;20143;-90
2022/07/11 02:55:27;;;;;;;0.20;0.10;;;17.50;94.60;;;;;;4915080;29;20415;-90
2022/07/11 02:57:54;;;;;;;0.40;0.40;;;17.40;94.70;;;;;;4915458;29;20376;-92
2022/07/11 03:00:21;;;;;;;0.20;0.20;;;17.40;95.10;;;;;;4915538;29;20107;-91
2022/07/11 03:02:48;;;;;;;0.20;0.10;;;17.40;95.10;;;;;;4908857;29;20148;-91
2022/07/11 03:05:15;;;;;;;0.30;0.17;;;17.40;95.20;;;;;;4916249;29;20276;-88
2022/07/11 03:07:42;;;;;;;0.10;0.10;;;17.40;95.10;;;;;;4914393;29;20507;-90
2022/07/11 03:10:09;;;;;;;0.40;0.20;;;17.40;95.30;;;;;;4915336;29;20083;-92
2022/07/11 03:12:36;;;;;;;0.30;0.30;;;17.30;95.40;;;;;;4915653;29;20060;-91
2022/07/11 03:15:04;;;;;;;0.43;0.30;;;17.30;95.60;;;;;;4914752;29;20056;-89
2022/07/11 03:17:32;;;;;;;0.25;0.20;;;17.30;95.70;;;;;;4914904;29;20137;-89
2022/07/11 03:20:00;;;;;;;0.20;0.20;;;17.30;95.80;;;;;;4915241;29;20063;-87
2022/07/11 03:22:27;;;;;;;0.25;0.20;;;17.30;96.00;;;;;;4883004;29;20049;-94
2022/07/11 03:24:54;;;;;;;0.22;0.10;;;17.30;96.00;;;;;;4897339;29;20412;-93
2022/07/11 03:27:21;;;;;;;0.65;0.17;;;17.20;96.00;;;;;;4912276;29;20480;-91
2022/07/11 03:29:48;;;;;;;0.25;0.20;;;17.20;96.30;;;;;;4900830;29;20052;-87
2022/07/11 03:32:20;;;;;;;0.45;0.22;;;17.10;96.60;;;;;;4882256;29;20116;-88
2022/07/11 03:37:41;;;;;;;0.22;0.17;;;17.10;97.10;;;;;;4913129;29;20127;-87
2022/07/11 03:40:09;;;;;;;0.13;0.13;;;17.10;97.20;;;;;;4898525;29;20059;-88
2022/07/11 03:42:36;;;;;;;0.13;0.13;;;17.10;97.50;;;;;;4898105;29;20428;-88
2022/07/11 03:45:03;;;;;;;0.13;0.10;;;17.10;97.30;;;;;;4896480;29;20630;-87
2022/07/11 03:47:32;;;;;;;0.20;0.10;;;17.10;98.00;;;;;;4899850;29;20056;-89
2022/07/11 03:50:00;;;;;;;0.20;0.20;;;17.10;97.80;;;;;;4899006;29;20052;-88
2022/07/11 03:52:28;;;;;;;0.45;0.28;;;17.10;97.80;;;;;;4898955;29;20245;-90
2022/07/11 03:54:55;;;;;;;0.30;0.30;;;17.10;98.00;;;;;;4899172;29;20127;-88
2022/07/11 03:57:21;;;;;;;0.20;0.20;;;17.10;98.10;;;;;;4899098;29;20562;-90
2022/07/11 03:59:49;;;;;;;0.20;0.20;;;17.00;98.40;;;;;;4898219;29;20127;-89
2022/07/11 04:02:16;;;;;;;0.10;0.10;;;16.90;98.60;;;;;;4897957;29;20138;-88
2022/07/11 04:04:43;;;;;;;0.17;0.10;;;16.90;99.20;;;;;;4895375;29;20115;-91
2022/07/11 04:07:10;;;;;;;0.10;0.10;;;16.80;99.50;;;;;;4898172;29;20059;-89
2022/07/11 04:09:37;;;;;;;0.20;0.20;;;16.90;99.70;;;;;;4897327;29;20052;-88
2022/07/11 04:12:04;;;;;;;0.30;0.13;;;16.90;99.50;;;;;;4895570;29;20114;-87
2022/07/11 04:14:31;;;;;;;0.30;0.30;;;16.90;99.70;;;;;;4892655;29;20052;-89
2022/07/11 04:16:58;;;;;;;0.38;0.28;;;16.90;99.80;;;;;;4895964;29;20059;-91
2022/07/11 04:19:25;;;;;;;0.20;0.20;;;16.90;99.90;;;;;;4894890;29;20056;-91
2022/07/11 04:21:52;;;;;;;0.30;0.30;;;16.90;99.90;;;;;;4896502;29;20111;-88
2022/07/11 04:24:19;;;;;;;0.10;0.10;;;16.90;99.90;;;;;;4897279;29;20273;-89
2022/07/11 04:26:46;;;;;;;0.47;0.20;;;17.00;99.90;;;;;;4896107;29;20067;-88
2022/07/11 04:29:13;;;;;;;0.32;0.28;;;17.00;99.90;;;;;;4896293;29;20783;-89
2022/07/11 04:37:06;;;;;;;0.13;0.10;;;17.00;99.90;;;;;;5230345;23;19980;-89
2022/07/11 04:39:33;;;;;;;0.10;0.10;;;17.00;99.90;;;;;;4925884;28;20062;-89
2022/07/11 04:42:02;;;;;;;0.20;0.20;;;17.00;99.90;;;;;;4924148;28;20129;-88
2022/07/11 04:44:29;;;;;;;0.35;0.35;;;17.00;99.90;;;;;;4939914;28;20378;-88
2022/07/11 04:46:57;;;;;;;0.20;0.20;;;17.00;99.90;;;;;;4922875;28;20346;-88
2022/07/11 04:49:24;;;;;;;0.13;0.13;;;17.10;99.90;;;;;;4953552;28;20207;-88
2022/07/11 04:51:51;;;;;;;0.40;0.32;;;17.10;99.90;;;;;;4924029;28;20059;-88
2022/07/11 04:54:18;;;;;;;0.35;0.30;;;17.10;99.90;;;;;;4923808;28;20183;-88
2022/07/11 04:56:45;;;;;;;0.20;0.20;;;17.10;99.90;;;;;;4938760;28;20596;-87
2022/07/11 04:59:12;;;;;;;0.10;0.10;;;17.20;99.90;;;;;;4924568;28;20055;-86
2022/07/11 05:01:40;;;;;;;0.30;0.20;;;17.20;99.90;;;;;;4922777;28;20158;-86
2022/07/11 05:04:08;;;;;;;0.28;0.20;;;17.20;99.90;;;;;;4922297;28;20131;-84
2022/07/11 05:06:35;;;;;;;0.20;0.20;;;17.30;99.90;;;;;;4939313;28;20150;-86
2022/07/11 05:09:03;;;;;;;0.38;0.30;;;17.30;99.90;;;;;;4923595;28;20078;-87
2022/07/11 05:11:30;;;;;;;0.20;0.10;;;17.40;99.90;;;;;;4921450;28;20059;-88
2022/07/11 05:13:57;;;;;;;0.13;0.13;;;17.40;99.90;;;;;;4906720;29;20082;-86
2022/07/11 05:16:24;;;;;;;0.25;0.25;;;17.50;99.90;;;;;;4902420;29;20090;-86
2022/07/11 05:18:51;;;;;;;0.20;0.20;;;17.50;99.90;;;;;;4904314;29;20047;-86
2022/07/11 05:21:22;;;;;;;0.28;0.20;;;17.60;99.90;;;;;;4908676;29;20059;-87
2022/07/11 05:23:49;;;;;;;0.20;0.20;;;17.60;99.90;;;;;;4921470;28;20047;-88
2022/07/11 05:26:16;;;;;;;0.60;0.30;;;17.60;99.90;;;;;;4918869;29;20043;-87
2022/07/11 05:28:43;;;;;;;0.20;0.20;;;17.70;99.90;;;;;;4914679;28;20070;-88
2022/07/11 05:31:10;;;;;;;0.20;0.10;;;17.70;99.90;;;;;;4916373;29;20074;-88
2022/07/11 05:33:37;;;;;;;0.30;0.20;;;17.70;99.90;;;;;;4904089;29;20055;-88
2022/07/11 05:36:05;;;;;;;0.20;0.20;;;17.80;99.90;;;;;;4907702;29;20089;-88
2022/07/11 05:38:32;;;;;;;1.33;0.50;;;17.90;99.90;;;;;;4937720;29;20146;-88
2022/07/11 05:40:59;;;;;;;0.25;0.25;;;17.90;99.90;;;;;;4936559;29;20102;-87
2022/07/11 05:43:28;;;;;;;0.13;0.13;;;17.90;99.90;;;;;;4911438;29;20055;-87
2022/07/11 05:45:55;;;;;;;0.20;0.20;;;18.00;99.90;;;;;;4908483;29;20205;-88
2022/07/11 05:48:22;;;;;;;0.30;0.30;;;18.00;99.90;;;;;;4920626;29;20047;-87
2022/07/11 05:50:52;;;;;;;0.20;0.20;;;18.10;99.90;;;;;;4934788;29;20058;-89
2022/07/11 05:53:19;;;;;;;0.30;0.30;;;18.20;99.90;;;;;;4922270;29;20051;-87
2022/07/11 05:55:46;;;;;;;0.10;0.10;;;18.30;99.90;;;;;;4929158;29;20054;-86
2022/07/11 05:58:15;;;;;;;0.20;0.20;;;18.30;99.90;;;;;;4922285;29;20063;-89
2022/07/11 06:00:42;;;;;;;0.80;0.47;;;18.40;99.90;;;;;;4934723;29;20043;-86
2022/07/11 06:03:09;;;;;;;0.40;0.20;;;18.50;99.90;;;;;;4915672;29;20055;-89
2022/07/11 06:05:39;;;;;;;0.20;0.20;;;18.60;99.90;;;;;;4904390;29;20055;-89
2022/07/11 06:10:52;;;;;;;0.47;0.30;;;18.90;99.90;;;;;;4932138;29;20051;-88
2022/07/11 06:13:19;;;;;;;0.20;0.20;;;19.10;99.90;;;;;;4916472;29;20246;-88
2022/07/11 06:15:47;;;;;;;0.22;0.22;;;19.20;99.90;;;;;;4910557;29;20130;-89
2022/07/11 06:18:13;;;;;;;0.30;0.30;;;19.30;99.90;;;;;;4934365;29;20051;-88
2022/07/11 06:20:41;;;;;;;0.10;0.10;;;19.40;99.90;;;;;;4935999;29;20052;-90
2022/07/11 06:23:08;;;;;;;0.20;0.20;;;19.50;99.90;;;;;;4932077;29;20052;-89
2022/07/11 06:25:35;;;;;;;0.10;0.10;;;19.60;99.90;;;;;;4916579;29;20063;-88
2022/07/11 06:28:02;;;;;;;0.28;0.20;;;19.60;99.90;;;;;;4936113;29;20050;-87
2022/07/11 06:30:30;;;;;;;0.10;0.10;;;19.70;99.70;;;;;;4897285;29;20055;-88
2022/07/11 06:32:58;;;;;;;0.10;0.10;;;19.80;99.40;;;;;;4912749;29;20418;-88
2022/07/11 06:35:25;;;;;;;0.20;0.10;;;19.90;99.40;;;;;;4926239;29;20054;-88
2022/07/11 06:37:52;;;;;;;0.10;0.10;;;20.00;99.00;;;;;;4903381;29;20107;-89
2022/07/11 06:40:19;;;;;;;0.20;0.20;;;20.00;99.10;;;;;;4913204;29;20063;-88
2022/07/11 06:42:46;;;;;;;0.30;0.20;;;20.10;99.10;;;;;;4934006;29;20110;-89
2022/07/11 06:45:13;;;;;;;0.20;0.20;;;20.20;98.60;;;;;;4914505;29;20043;-89
2022/07/11 06:47:40;;;;;;;0.28;0.28;;;20.30;98.40;;;;;;4931305;29;20062;-88
2022/07/11 06:50:07;;;;;;;0.20;0.20;;;20.40;98.20;;;;;;4921340;29;20150;-87
2022/07/11 06:52:34;;;;;;;0.10;0.10;;;20.50;97.40;;;;;;4903493;29;20137;-89
2022/07/11 06:55:02;;;;;;;0.20;0.20;;;20.60;97.30;;;;;;4928439;29;20090;-89
2022/07/11 06:57:29;;;;;;;0.17;0.17;;;20.70;97.20;;;;;;4917838;29;20392;-89
2022/07/11 06:59:56;;;;;;;0.17;0.10;;;20.80;97.60;;;;;;4929219;29;20056;-89
2022/07/11 07:02:27;;;;;;;0.20;0.20;;;20.90;97.30;;;;;;4931701;29;20055;-89
2022/07/11 07:04:54;;;;;;;0.40;0.30;;;21.00;96.80;;;;;;4900928;29;20307;-90
2022/07/11 07:07:22;;;;;;;0.20;0.20;;;21.10;97.10;;;;;;4921471;29;20043;-89
2022/07/11 07:09:51;;;;;;;0.20;0.20;;;21.10;96.90;;;;;;4935063;29;20063;-89
2022/07/11 07:12:18;;;;;;;0.20;0.20;;;21.20;96.50;;;;;;4932902;29;20082;-89
2022/07/11 07:14:49;;;;;;;0.30;0.30;;;21.30;96.90;;;;;;4932329;29;20519;-90
2022/07/11 07:17:16;;;;;;;0.30;0.22;;;21.30;96.60;;;;;;4933614;29;20062;-89
2022/07/11 07:19:44;;;;;;;0.10;0.10;;;21.50;96.80;;;;;;4934864;29;20066;-89
2022/07/11 07:22:14;;;;;;;0.52;0.40;;;21.50;96.20;;;;;;4934680;29;20114;-89
2022/07/11 07:24:42;;;;;;;0.15;0.15;;;21.60;95.70;;;;;;4935972;29;20055;-88
2022/07/11 07:27:09;;;;;;;0.20;0.20;;;21.70;94.80;;;;;;4918601;29;20059;-88
2022/07/11 07:29:36;;;;;;;0.30;0.28;;;21.80;94.90;;;;;;4936520;29;20070;-89
2022/07/11 07:32:04;;;;;;;0.10;0.10;;;21.80;94.70;;;;;;4901911;29;20101;-89
2022/07/11 07:34:32;;;;;;;0.10;0.10;;;21.90;94.90;;;;;;4903313;29;20046;-89
2022/07/11 07:36:59;;;;;;;0.20;0.20;;;22.00;94.20;;;;;;4910888;29;20078;-90
2022/07/11 07:39:27;;;;;;;0.15;0.15;;;22.00;93.90;;;;;;4936891;29;20126;-89
2022/07/11 07:41:54;;;;;;;0.55;0.30;;;22.10;94.10;;;;;;4936633;29;20082;-89
2022/07/11 07:44:21;;;;;;;0.40;0.40;;;22.20;93.90;;;;;;4917530;29;20051;-88
2022/07/11 07:46:48;;;;;;;0.30;0.20;;;22.30;93.60;;;;;;4918578;29;20115;-88
2022/07/11 07:49:16;;;;;;;0.20;0.20;;;22.30;93.50;;;;;;4936946;29;20055;-88
2022/07/11 07:51:43;;;;;;;0.80;0.20;;;22.40;93.10;;;;;;4920365;29;20126;-88
2022/07/11 07:54:10;;;;;;;0.40;0.30;;;22.50;93.20;;;;;;4920888;29;20047;-88
2022/07/11 07:56:39;;;;;;;0.20;0.20;;;22.60;93.10;;;;;;4944322;29;20059;-87
2022/07/11 07:59:07;;;;;;;0.50;0.30;;;22.80;92.90;;;;;;4937594;29;20234;-87
2022/07/11 08:01:36;;;;;;;0.38;0.38;;;22.80;92.50;;;;;;4934972;29;20114;-87
2022/07/11 08:04:08;;;;;;;0.20;0.20;;;23.00;92.20;;;;;;4931748;29;20043;-87
2022/07/11 08:06:35;;;;;;;0.63;0.25;;;23.10;92.00;;;;;;4933112;29;20078;-87
2022/07/11 08:09:04;;;;;;;0.30;0.30;;;23.20;91.70;;;;;;4930763;29;20110;-88
2022/07/11 08:11:32;;;;;;;0.40;0.30;;;23.40;91.60;;;;;;4932979;29;20474;-87
2022/07/11 08:13:59;;;;;;;0.30;0.30;;;23.40;91.00;;;;;;4920905;29;20052;-86
2022/07/11 08:16:28;;;;;;;0.45;0.35;;;23.50;91.00;;;;;;4914325;29;20055;-87
2022/07/11 08:19:03;;;;;;;0.22;0.20;;;23.60;90.30;;;;;;4915941;29;20055;-87
2022/07/11 08:21:31;;;;;;;0.20;0.20;;;23.60;90.10;;;;;;4916001;29;20055;-88
2022/07/11 08:23:58;;;;;;;0.38;0.30;;;23.60;89.80;;;;;;4916983;29;20056;-87
2022/07/11 08:26:25;;;;;;;0.40;0.40;;;23.70;90.30;;;;;;4915781;29;20527;-87
2022/07/11 08:28:59;;;;;;;0.30;0.30;;;23.80;89.40;;;;;;4919664;29;20068;-86
2022/07/11 08:31:26;;;;;;;0.40;0.40;;;23.90;89.20;;;;;;4933775;29;20055;-87
2022/07/11 08:33:53;;;;;;;0.47;0.30;;;23.90;88.40;;;;;;4920029;29;20051;-87
2022/07/11 08:36:20;;;;;;;0.45;0.30;;;23.90;87.70;;;;;;4933472;29;20114;-87
2022/07/11 08:38:47;;;;;;;0.40;0.30;;;24.00;88.00;;;;;;4933110;29;20113;-86
2022/07/11 08:41:14;;;;;;;0.43;0.38;;;24.00;88.20;;;;;;4934068;29;20047;-87
2022/07/11 08:43:41;;;;;;;0.43;0.30;;;24.10;87.20;;;;;;4925755;29;20503;-87
2022/07/11 08:46:09;;;;;;;0.20;0.20;;;24.20;87.10;;;;;;4929909;29;20047;-87
2022/07/11 08:48:43;;;;;;;0.40;0.32;;;24.20;86.20;;;;;;4933582;29;20075;-88
2022/07/11 08:51:10;;;;;;;0.47;0.20;;;24.30;86.50;;;;;;4918882;29;20067;-87
2022/07/11 08:53:43;;;;;;;0.52;0.20;;;24.40;85.80;;;;;;4923824;29;20047;-87
2022/07/11 08:56:15;;;;;;;0.20;0.20;;;24.50;86.50;;;;;;4927758;28;20080;-87
2022/07/11 08:58:44;;;;;;;2.83;0.70;;;24.60;86.40;;;;;;4935362;29;20495;-87
2022/07/11 09:01:38;;;;;;;0.17;0.10;;;24.60;85.20;;;;;;4939074;29;20083;-88
2022/07/11 09:04:06;;;;;;;0.20;0.20;;;24.80;85.40;;;;;;4938492;29;20191;-88
2022/07/11 09:06:35;;;;;;;0.25;0.25;;;24.80;84.60;;;;;;4938543;29;20059;-89
2022/07/11 09:09:02;;;;;;;0.28;0.20;;;24.90;83.90;;;;;;4922326;29;20055;-88
2022/07/11 09:11:49;;;;;;;0.40;0.20;;;25.00;83.80;;;;;;4935556;29;20055;-88
2022/07/11 09:14:29;;;;;;;0.20;0.20;;;25.00;83.00;;;;;;4938769;29;20433;-88
2022/07/11 09:17:03;;;;;;;0.20;0.20;;;25.10;83.20;;;;;;4937546;29;20059;-88
2022/07/11 09:19:36;;;;;;;0.45;0.35;;;25.20;83.30;;;;;;4939052;29;20118;-89
2022/07/11 09:27:44;;;;;;;0.30;0.30;;;25.40;81.20;;;;;;4932643;29;20074;-88
2022/07/11 09:30:31;;;;;;;0.40;0.30;;;25.50;80.60;;;;;;4902127;29;20150;-89
2022/07/11 09:33:00;;;;;;;0.10;0.10;;;25.50;80.50;;;;;;4907739;29;20105;-88
2022/07/11 09:35:38;;;;;;;0.38;0.30;;;25.60;80.70;;;;;;4937779;29;20138;-88
2022/07/11 09:38:06;;;;;;;0.65;0.30;;;25.60;79.90;;;;;;4938428;29;20055;-88
2022/07/11 09:40:33;;;;;;;0.20;0.20;;;25.70;80.20;;;;;;4937082;29;20463;-88
2022/07/11 09:43:00;;;;;;;0.20;0.20;;;25.70;79.40;;;;;;4918551;29;20091;-88
2022/07/11 09:45:28;;;;;;;0.20;0.20;;;25.70;79.40;;;;;;4932291;29;20056;-88
2022/07/11 09:47:57;;;;;;;0.45;0.30;;;25.70;79.10;;;;;;4933510;29;20155;-88
2022/07/11 09:50:26;;;;;;;0.20;0.20;;;25.80;80.30;;;;;;4933511;29;20063;-88
2022/07/11 09:53:07;;;;;;;0.35;0.30;;;25.90;79.90;;;;;;4932931;29;20052;-89
2022/07/11 09:55:38;;;;;;;0.30;0.20;;;26.00;78.80;;;;;;4917147;29;20056;-89
2022/07/11 09:58:26;;;;;;;0.20;0.20;;;26.00;79.60;;;;;;4921811;29;20063;-88
2022/07/11 10:00:54;;;;;;;;;;;26.20;78.60;;;;;;4918968;29;20059;-88
2022/07/11 10:03:23;;;;;;;0.55;0.20;;;26.30;77.80;;;;;;4925674;29;19926;-88
2022/07/11 10:06:10;;;;;;;0.30;0.30;;;26.40;78.00;;;;;;4940336;29;20055;-88
2022/07/11 10:08:37;;;;;;;0.55;0.30;;;26.40;78.10;;;;;;4936833;29;20102;-88
2022/07/11 10:11:04;;;;;;;0.30;0.30;;;26.40;77.00;;;;;;4920815;29;20071;-89
2022/07/11 10:13:31;;;;;;;0.15;0.15;;;26.50;76.80;;;;;;4929661;29;20870;-88
2022/07/11 10:15:58;;;;;;;0.30;0.30;;;26.50;77.00;;;;;;4900829;29;20064;-87
2022/07/11 10:18:48;;;;;;;0.50;0.30;;;26.70;77.00;;;;;;4917789;29;20051;-88
2022/07/11 10:21:22;;;;;;;0.28;0.20;;;26.70;75.70;;;;;;4933066;29;20040;-88
2022/07/11 10:24:14;;;;;;;0.43;0.43;;;26.70;75.60;;;;;;4932299;29;20122;-88
2022/07/11 10:26:46;;;;;;;0.25;0.25;;;26.70;75.50;;;;;;4937674;29;20494;-86
2022/07/11 10:29:16;;;;;;;0.38;0.30;;;26.80;75.50;;;;;;4933659;29;20074;-89
2022/07/11 10:31:46;;;;;;;0.28;0.28;;;26.90;74.80;;;;;;4939593;29;20043;-89
2022/07/11 10:34:33;;;;;;;0.10;0.10;;;26.90;74.80;;;;;;4930771;29;20071;-88
2022/07/11 10:37:04;;;;;;;0.45;0.20;;;27.00;75.60;;;;;;4922581;29;20047;-89
2022/07/11 10:39:34;;;;;;;0.43;0.43;;;27.10;74.60;;;;;;4905875;29;20547;-88
2022/07/11 10:42:05;;;;;;;0.52;0.40;;;27.10;73.70;;;;;;4924868;29;20209;-88
2022/07/11 10:44:53;;;;;;;0.35;0.30;;;27.20;74.70;;;;;;4927017;29;20047;-87
2022/07/11 10:47:41;;;;;;;0.47;0.47;;;27.40;73.70;;;;;;4911344;29;20051;-88
2022/07/11 10:50:24;;;;;;;0.28;0.28;;;27.40;72.50;;;;;;4939075;29;20139;-88
2022/07/11 10:52:51;;;;;;;0.25;0.25;;;27.50;72.30;;;;;;4946370;29;20127;-89
2022/07/11 10:55:43;;;;;;;0.40;0.30;;;27.60;72.30;;;;;;4928404;29;20110;-89
2022/07/11 10:58:23;;;;;;;0.10;0.10;;;27.70;71.00;;;;;;4924562;29;20052;-89
2022/07/11 11:01:12;;;;;;;0.20;0.20;;;27.70;71.50;;;;;;4929457;29;20047;-89
2022/07/11 11:03:39;;;;;;;1.35;0.55;;;27.80;71.50;;;;;;4915970;29;20551;-88
2022/07/11 11:06:07;;;;;;;0.25;0.20;;;27.90;70.60;;;;;;4916055;29;20052;-89
2022/07/11 11:08:37;;;;;;;0.10;0.10;;;28.00;71.00;;;;;;4930581;29;20055;-90
2022/07/11 11:11:22;;;;;;;0.30;0.30;;;28.00;70.80;;;;;;4946707;29;20468;-89
2022/07/11 11:14:25;;;;;;;0.30;0.30;;;28.00;71.10;;;;;;4941263;29;20058;-90
2022/07/11 11:16:52;;;;;;;0.20;0.20;;;28.10;69.70;;;;;;4911456;29;20088;-88
2022/07/11 11:19:47;;;;;;;0.47;0.40;;;28.20;68.80;;;;;;4914162;29;20077;-88
2022/07/11 11:22:15;;;;;;;0.60;0.40;;;28.30;68.60;;;;;;4941894;28;20051;-87
2022/07/11 11:24:43;;;;;;;0.70;0.40;;;28.20;69.70;;;;;;4911409;29;20055;-90
2022/07/11 11:27:31;;;;;;;0.40;0.30;;;28.30;70.00;;;;;;4900641;29;20082;-89
2022/07/11 11:29:58;;;;;;;0.30;0.30;;;28.60;69.20;;;;;;4915192;29;20415;-90
2022/07/11 11:32:34;;;;;;;0.30;0.30;;;29.00;69.10;;;;;;4915764;29;20474;-88
2022/07/11 11:35:03;;;;;;;0.20;0.20;;;29.30;68.80;;;;;;4913415;29;20089;-87
2022/07/11 11:37:30;;;;;;;0.40;0.30;;;29.70;67.50;;;;;;4929201;29;20063;-88
2022/07/11 11:39:59;;;;;;;0.47;0.43;;;29.80;67.90;;;;;;4914071;29;20052;-88
2022/07/11 11:42:27;;;;;;;1.90;0.60;;;30.10;66.20;;;;;;4920820;29;20424;-89
2022/07/11 11:45:03;;;;;;;0.20;0.20;;;30.30;65.70;;;;;;4910163;29;20251;-88
2022/07/11 11:47:31;;;;;;;0.40;0.40;;;30.60;65.70;;;;;;4924807;29;20463;-88
2022/07/11 11:49:58;;;;;;;0.40;0.32;;;30.70;65.10;;;;;;4892290;29;20514;-88
2022/07/11 11:52:27;;;;;;;0.47;0.40;;;30.90;64.90;;;;;;4883186;29;20074;-88
2022/07/11 11:54:55;;;;;;;0.43;0.40;;;31.10;64.60;;;;;;4910837;29;21127;-88
2022/07/11 11:57:23;;;;;;;0.30;0.30;;;31.20;64.20;;;;;;4913573;29;20161;-88
2022/07/11 11:59:51;;;;;;;0.30;0.30;;;31.50;62.90;;;;;;4899335;29;20531;-88
2022/07/11 12:02:22;;;;;;;0.50;0.50;;;31.60;62.80;;;;;;4915638;29;20051;-88
2022/07/11 12:04:49;;;;;;;0.50;0.43;;;32.00;62.50;;;;;;4912795;29;20048;-88
2022/07/11 12:07:24;;;;;;;0.35;0.35;;;32.40;62.20;;;;;;4911417;29;20067;-88
2022/07/11 12:09:55;;;;;;;0.40;0.40;;;32.80;61.60;;;;;;4896483;29;20407;-88
2022/07/11 12:15:31;;;;;;;0.30;0.30;;;33.70;59.70;;;;;;4908531;29;20063;-88
2022/07/11 12:18:05;;;;;;;1.88;0.50;;;33.80;58.80;;;;;;4928682;29;20404;-90
2022/07/11 12:20:41;;;;;;;0.30;0.30;;;33.70;58.30;;;;;;4899032;29;20222;-89
2022/07/11 12:23:09;;;;;;;0.30;0.30;;;33.70;58.80;;;;;;4909828;29;20131;-89
2022/07/11 12:25:44;;;;;;;0.50;0.40;;;33.80;58.50;;;;;;4909649;29;20085;-90
2022/07/11 12:28:11;;;;;;;0.40;0.40;;;33.70;57.50;;;;;;4901983;29;20255;-89
2022/07/11 12:30:38;;;;;;;0.45;0.43;;;33.80;57.50;;;;;;4896114;29;20059;-89
2022/07/11 12:33:08;;;;;;;0.45;0.40;;;34.00;57.10;;;;;;4928692;29;20055;-89
2022/07/11 12:35:35;;;;;;;0.30;0.30;;;34.20;56.80;;;;;;4903082;29;20063;-89
2022/07/11 12:38:03;;;;;;;0.30;0.30;;;34.50;56.20;;;;;;4919587;29;20067;-90
2022/07/11 12:40:30;;;;;;;0.20;0.20;;;34.90;56.30;;;;;;4903505;29;20059;-90
2022/07/11 12:42:59;;;;;;;0.30;0.30;;;34.90;55.50;;;;;;4919578;29;20392;-90
2022/07/11 12:45:27;;;;;;;0.30;0.30;;;35.10;55.30;;;;;;4904404;29;20079;-89
2022/07/11 12:47:54;;;;;;;0.30;0.30;;;35.20;54.90;;;;;;4921311;29;20463;-90
2022/07/11 12:50:25;;;;;;;0.43;0.32;;;35.00;55.80;;;;;;4920358;29;20086;-90
2022/07/11 12:53:01;;;;;;;0.30;0.30;;;35.30;55.90;;;;;;4920758;29;20059;-90
2022/07/11 12:55:30;;;;;;;0.22;0.22;;;35.80;56.30;;;;;;4919565;29;20095;-89
2022/07/11 12:58:03;;;;;;;0.30;0.30;;;36.20;54.40;;;;;;4938583;29;20062;-90
2022/07/11 13:00:31;;;;;;;0.40;0.30;;;36.60;55.90;;;;;;4937924;29;20055;-90
2022/07/11 13:02:59;;;;;;;0.30;0.30;;;36.90;53.30;;;;;;4947165;29;20055;-89
2022/07/11 13:05:26;;;;;;;0.73;0.50;;;37.30;54.20;;;;;;4933350;29;20051;-90
2022/07/11 13:10:51;;;;;;;0.73;0.65;;;37.80;52.30;;;;;;4934447;29;20082;-89
2022/07/11 13:13:31;;;;;;;0.55;0.47;;;38.00;52.20;;;;;;4936316;29;20048;-90
2022/07/11 13:16:02;;;;;;;0.40;0.40;;;38.20;54.10;;;;;;4933988;29;20138;-89
2022/07/11 13:18:29;;;;;;;0.30;0.30;;;38.50;51.40;;;;;;4937505;29;20051;-89
2022/07/11 13:20:56;;;;;;;0.82;0.50;;;38.70;52.20;;;;;;4918236;29;20047;-89
2022/07/11 13:23:23;;;;;;;0.40;0.40;;;38.80;50.70;;;;;;4932609;29;20142;-89
2022/07/11 13:25:50;;;;;;;0.73;0.40;;;38.50;50.90;;;;;;4903243;29;20059;-89
2022/07/11 13:28:19;;;;;;;0.52;0.50;;;38.60;51.90;;;;;;4902360;29;20491;-90